Time;durP1;ratioP1;P1;durP2;ratioP2;P2;SDS_P1;SDS_P2;PMS_P1;PMS_P2;Temp;Humidity;BMP_temperature;BMP_pressure;BME280_temperature;BME280_humidity;BME280_pressure;Samples;Min_cycle;Max_cycle;Signal;HPM_P1;HPM_P2
2023/05/15 00:00:31;;;;;;;10.57;5.40;;;16.10;99.90;;;;;;5118071;27;20047;-78
2023/05/15 00:02:57;;;;;;;9.77;5.93;;;16.20;99.90;;;;;;5118491;27;20377;-79
2023/05/15 00:05:23;;;;;;;8.25;4.70;;;16.20;99.90;;;;;;5118557;27;20019;-79
2023/05/15 00:07:49;;;;;;;9.90;5.53;;;16.10;99.90;;;;;;5136712;27;20027;-78
2023/05/15 00:10:15;;;;;;;7.97;5.57;;;16.10;99.90;;;;;;5118515;27;20100;-78
2023/05/15 00:12:40;;;;;;;10.38;5.72;;;16.10;99.90;;;;;;5136205;27;20103;-78
2023/05/15 00:15:07;;;;;;;13.60;5.53;;;16.20;99.90;;;;;;5118148;27;20084;-77
2023/05/15 00:17:33;;;;;;;8.02;5.15;;;16.20;99.90;;;;;;5136845;27;20023;-78
2023/05/15 00:19:59;;;;;;;7.53;5.45;;;16.20;99.90;;;;;;5136600;27;20019;-78
2023/05/15 00:22:25;;;;;;;7.32;5.03;;;16.20;99.90;;;;;;5117559;27;20046;-78
2023/05/15 00:24:51;;;;;;;9.73;4.90;;;16.20;99.90;;;;;;5118272;27;20019;-79
2023/05/15 00:27:16;;;;;;;8.85;5.03;;;16.20;99.90;;;;;;5136664;27;20019;-79
2023/05/15 00:29:42;;;;;;;8.73;5.38;;;16.20;99.90;;;;;;5117895;27;20433;-78
2023/05/15 00:32:08;;;;;;;13.30;4.97;;;16.20;99.90;;;;;;5136657;27;20041;-81
2023/05/15 00:34:34;;;;;;;9.10;4.97;;;16.20;99.90;;;;;;5113348;27;20023;-81
2023/05/15 00:37:00;;;;;;;8.15;5.05;;;16.20;99.90;;;;;;5117813;27;20472;-79
2023/05/15 00:39:26;;;;;;;10.50;5.40;;;16.20;99.90;;;;;;5136655;27;20034;-79
2023/05/15 00:41:53;;;;;;;7.75;4.43;;;16.20;99.90;;;;;;5117291;27;20027;-79
2023/05/15 00:44:20;;;;;;;11.18;5.53;;;16.30;99.90;;;;;;5136508;27;20027;-78
2023/05/15 00:46:48;;;;;;;8.93;4.93;;;16.30;99.90;;;;;;5135992;27;20023;-78
2023/05/15 00:49:15;;;;;;;7.35;4.65;;;16.20;99.90;;;;;;5117471;27;20103;-78
2023/05/15 00:51:41;;;;;;;9.45;5.13;;;16.20;99.90;;;;;;5134389;27;20023;-77
2023/05/15 00:54:09;;;;;;;9.10;4.60;;;16.20;99.90;;;;;;5117768;27;20055;-78
2023/05/15 00:56:35;;;;;;;8.18;5.68;;;16.20;99.90;;;;;;5117485;27;20437;-78
2023/05/15 00:59:05;;;;;;;10.02;5.95;;;16.30;99.90;;;;;;5129135;27;20031;-78
2023/05/15 01:01:33;;;;;;;8.10;5.45;;;16.20;99.90;;;;;;5115024;28;20470;-78
2023/05/15 01:04:03;;;;;;;5.65;4.28;;;16.30;99.90;;;;;;5125104;27;20027;-78
2023/05/15 01:06:30;;;;;;;9.10;5.40;;;16.20;99.90;;;;;;5117323;27;20030;-78
2023/05/15 01:08:58;;;;;;;9.25;5.28;;;16.30;99.90;;;;;;5135699;27;20046;-78
2023/05/15 01:11:33;;;;;;;9.00;4.60;;;16.20;99.90;;;;;;5134842;27;20449;-79
2023/05/15 01:13:59;;;;;;;8.88;4.93;;;16.20;99.90;;;;;;5117583;27;20350;-78
2023/05/15 01:16:25;;;;;;;11.48;5.22;;;16.20;99.90;;;;;;5111750;27;20034;-79
2023/05/15 01:18:51;;;;;;;9.63;5.07;;;16.10;99.90;;;;;;5134895;27;20023;-78
2023/05/15 01:21:31;;;;;;;13.30;5.47;;;16.10;99.90;;;;;;5135001;27;20019;-77
2023/05/15 01:24:49;;;;;;;13.60;5.20;;;16.00;99.90;;;;;;5134033;27;20023;-78
2023/05/15 01:27:21;;;;;;;10.10;6.03;;;16.00;99.90;;;;;;5064537;27;20035;-78
2023/05/15 01:30:03;;;;;;;10.00;6.25;;;15.90;99.90;;;;;;5134881;27;20019;-79
2023/05/15 01:32:35;;;;;;;12.32;8.10;;;15.90;99.90;;;;;;5134188;27;20102;-79
2023/05/15 01:35:07;;;;;;;13.75;8.00;;;15.80;99.90;;;;;;5116081;27;20019;-78
2023/05/15 01:37:35;;;;;;;12.07;7.80;;;15.70;99.90;;;;;;5116040;27;20119;-78
2023/05/15 01:40:05;;;;;;;14.60;8.35;;;15.60;99.90;;;;;;5134426;27;20094;-77
2023/05/15 01:42:34;;;;;;;18.08;8.65;;;15.60;99.90;;;;;;5134253;27;20023;-79
2023/05/15 01:45:04;;;;;;;14.20;7.93;;;15.50;99.90;;;;;;5115738;27;20418;-78
2023/05/15 01:47:38;;;;;;;14.30;6.70;;;15.50;99.90;;;;;;5116296;27;20361;-77
2023/05/15 01:50:06;;;;;;;12.25;7.22;;;15.40;99.90;;;;;;5130960;27;20453;-78
2023/05/15 01:52:39;;;;;;;14.55;7.43;;;15.30;99.90;;;;;;5134060;27;20023;-78
2023/05/15 01:55:06;;;;;;;9.10;6.10;;;15.30;99.90;;;;;;5134271;27;20051;-77
2023/05/15 01:57:33;;;;;;;9.10;5.85;;;15.30;99.90;;;;;;5115696;27;20076;-77
2023/05/15 02:00:00;;;;;;;9.60;5.20;;;15.20;99.90;;;;;;5115989;27;20027;-79
2023/05/15 02:02:28;;;;;;;5.13;3.85;;;15.20;99.90;;;;;;5134161;27;20449;-76
2023/05/15 02:04:55;;;;;;;8.02;4.35;;;15.20;99.90;;;;;;5135040;27;20035;-77
2023/05/15 02:07:21;;;;;;;7.50;4.65;;;15.10;99.90;;;;;;5134607;27;20019;-78
2023/05/15 02:09:48;;;;;;;4.95;3.60;;;15.20;99.90;;;;;;5116375;27;20019;-77
2023/05/15 02:12:14;;;;;;;4.25;3.08;;;15.10;99.90;;;;;;5134534;27;20023;-78
2023/05/15 02:14:41;;;;;;;4.10;3.08;;;15.10;99.90;;;;;;5116060;28;20027;-78
2023/05/15 02:17:07;;;;;;;4.60;3.15;;;15.10;99.90;;;;;;5116310;28;20027;-78
2023/05/15 02:19:33;;;;;;;5.28;3.20;;;15.00;99.90;;;;;;5134247;28;20027;-78
2023/05/15 02:21:59;;;;;;;3.30;2.65;;;15.00;99.90;;;;;;5116215;28;20038;-78
2023/05/15 02:24:25;;;;;;;3.10;2.28;;;15.00;99.90;;;;;;5116382;28;20368;-78
2023/05/15 02:26:53;;;;;;;5.00;3.20;;;15.00;99.90;;;;;;5134494;28;20346;-78
2023/05/15 02:29:28;;;;;;;3.30;2.63;;;15.00;99.90;;;;;;5134469;28;20068;-78
2023/05/15 02:32:06;;;;;;;4.30;3.15;;;14.90;99.90;;;;;;5134405;28;20377;-78
2023/05/15 02:34:46;;;;;;;3.15;2.60;;;14.90;99.90;;;;;;5117550;27;20342;-78
2023/05/15 02:37:17;;;;;;;4.53;2.95;;;14.80;99.90;;;;;;5138903;27;20123;-78
2023/05/15 02:39:44;;;;;;;3.88;2.88;;;14.80;99.90;;;;;;5138911;27;20095;-78
2023/05/15 02:42:13;;;;;;;4.38;2.95;;;14.80;99.90;;;;;;5119820;27;20076;-78
2023/05/15 02:44:41;;;;;;;5.63;2.97;;;14.80;99.90;;;;;;5138967;27;20033;-79
2023/05/15 02:47:08;;;;;;;5.32;3.50;;;14.80;99.90;;;;;;5138912;27;20441;-78
2023/05/15 02:49:34;;;;;;;6.30;2.90;;;14.80;99.90;;;;;;5138275;27;20412;-78
2023/05/15 02:52:00;;;;;;;3.40;2.42;;;14.80;99.90;;;;;;5120087;27;20023;-78
2023/05/15 02:54:26;;;;;;;3.95;2.70;;;14.80;99.90;;;;;;5138168;27;20098;-78
2023/05/15 02:56:52;;;;;;;6.93;3.00;;;14.80;99.90;;;;;;5130903;27;20027;-78
2023/05/15 02:59:18;;;;;;;4.15;2.97;;;14.80;99.90;;;;;;5132526;27;20019;-78
2023/05/15 03:01:48;;;;;;;3.47;2.83;;;14.80;99.90;;;;;;5137979;27;20121;-78
2023/05/15 03:04:14;;;;;;;4.78;2.97;;;14.80;99.90;;;;;;5138073;27;20098;-78
2023/05/15 03:06:40;;;;;;;4.93;2.90;;;14.80;99.90;;;;;;5119466;27;20433;-78
2023/05/15 03:09:06;;;;;;;5.40;3.15;;;14.80;99.90;;;;;;5137503;27;20020;-78
2023/05/15 03:11:31;;;;;;;4.50;3.17;;;14.80;99.90;;;;;;5119648;27;20517;-78
2023/05/15 03:13:59;;;;;;;6.57;3.50;;;14.70;99.90;;;;;;5119543;27;20034;-78
2023/05/15 03:16:25;;;;;;;6.22;3.80;;;14.80;99.90;;;;;;5119367;27;20453;-78
2023/05/15 03:18:51;;;;;;;3.47;3.00;;;14.80;99.90;;;;;;5138276;27;20026;-78
2023/05/15 03:21:17;;;;;;;4.78;2.20;;;14.70;99.90;;;;;;5137900;27;20027;-78
2023/05/15 03:23:43;;;;;;;2.50;2.05;;;14.70;99.90;;;;;;5137166;27;20366;-78
2023/05/15 03:26:09;;;;;;;2.88;2.17;;;14.60;99.90;;;;;;5137555;27;20053;-79
2023/05/15 03:28:35;;;;;;;2.83;2.10;;;14.60;99.90;;;;;;5137464;27;20030;-79
2023/05/15 03:31:01;;;;;;;4.90;3.47;;;14.60;99.90;;;;;;5137285;27;20026;-77
2023/05/15 03:33:26;;;;;;;4.28;2.67;;;14.50;99.90;;;;;;5137690;27;20512;-78
2023/05/15 03:35:52;;;;;;;3.08;2.10;;;14.50;99.90;;;;;;5119372;27;20476;-78
2023/05/15 03:38:19;;;;;;;3.10;2.20;;;14.60;99.90;;;;;;5118818;27;20030;-78
2023/05/15 03:40:44;;;;;;;4.22;2.53;;;14.60;99.90;;;;;;5137895;27;20019;-78
2023/05/15 03:43:10;;;;;;;2.90;1.90;;;14.60;99.90;;;;;;5137431;27;20057;-78
2023/05/15 03:45:37;;;;;;;2.63;2.20;;;14.60;99.90;;;;;;5136070;27;20378;-78
2023/05/15 03:48:03;;;;;;;2.33;2.00;;;14.60;99.90;;;;;;5119041;27;20531;-78
2023/05/15 03:50:30;;;;;;;4.60;1.92;;;14.60;99.90;;;;;;5099345;27;20027;-77
2023/05/15 03:52:56;;;;;;;4.10;2.58;;;14.70;99.90;;;;;;5118851;27;20023;-77
2023/05/15 03:55:21;;;;;;;4.38;2.30;;;14.70;99.90;;;;;;5118895;27;20023;-77
2023/05/15 03:57:47;;;;;;;2.45;2.20;;;14.70;99.90;;;;;;5118459;27;20106;-77
2023/05/15 04:00:13;;;;;;;4.93;3.15;;;14.70;99.90;;;;;;5110170;28;20044;-78
2023/05/15 04:02:39;;;;;;;4.82;3.42;;;14.70;99.90;;;;;;5121444;27;20039;-77
2023/05/15 04:05:07;;;;;;;3.15;2.85;;;14.70;99.90;;;;;;5137217;27;20076;-77
2023/05/15 04:07:34;;;;;;;6.13;3.08;;;14.80;99.90;;;;;;5137199;27;20031;-77
2023/05/15 04:10:00;;;;;;;2.85;2.45;;;14.80;99.90;;;;;;5137333;27;20015;-77
2023/05/15 04:12:32;;;;;;;3.72;2.70;;;14.80;99.90;;;;;;5136673;27;20034;-77
2023/05/15 04:15:17;;;;;;;3.67;2.38;;;14.90;99.90;;;;;;5118536;27;20034;-77
2023/05/15 04:17:47;;;;;;;2.80;2.50;;;15.00;99.90;;;;;;5136186;27;20015;-79
2023/05/15 04:20:15;;;;;;;2.83;2.53;;;14.80;99.90;;;;;;5116625;27;20023;-80
2023/05/15 04:22:41;;;;;;;3.08;2.50;;;14.90;99.90;;;;;;5110770;27;20031;-81
2023/05/15 04:25:08;;;;;;;2.30;2.00;;;14.90;99.90;;;;;;5135251;27;20023;-80
2023/05/15 04:27:35;;;;;;;2.65;2.15;;;14.90;99.90;;;;;;5117148;27;20023;-79
2023/05/15 04:30:02;;;;;;;1.85;1.73;;;15.00;99.90;;;;;;5136086;27;20079;-79
2023/05/15 04:32:29;;;;;;;2.40;2.20;;;15.10;99.90;;;;;;5117170;27;20019;-79
2023/05/15 04:34:55;;;;;;;2.90;2.60;;;15.10;99.90;;;;;;5135637;27;20023;-79
2023/05/15 04:37:21;;;;;;;3.05;2.47;;;15.20;99.90;;;;;;5117827;27;20027;-79
2023/05/15 04:39:47;;;;;;;3.80;2.47;;;15.20;99.90;;;;;;5117425;27;20027;-79
2023/05/15 04:42:12;;;;;;;3.33;2.40;;;15.20;99.90;;;;;;5117880;27;20041;-79
2023/05/15 04:44:39;;;;;;;8.05;5.03;;;15.20;99.90;;;;;;5135484;27;20023;-79
2023/05/15 04:47:05;;;;;;;5.38;2.70;;;15.20;99.90;;;;;;5135284;27;20046;-80
2023/05/15 04:49:30;;;;;;;2.75;2.33;;;15.20;99.90;;;;;;5135852;27;20023;-79
2023/05/15 04:51:56;;;;;;;3.60;2.80;;;15.20;99.90;;;;;;5116697;27;20035;-80
2023/05/15 04:54:22;;;;;;;5.75;4.28;;;15.20;99.90;;;;;;5136149;27;20027;-80
2023/05/15 04:56:48;;;;;;;12.20;6.38;;;15.30;99.90;;;;;;5117299;27;20111;-80
2023/05/15 04:59:15;;;;;;;3.15;2.35;;;15.30;99.90;;;;;;5135308;27;20030;-80
2023/05/15 05:01:41;;;;;;;4.30;3.05;;;15.30;99.90;;;;;;5135215;27;20070;-80
2023/05/15 05:04:07;;;;;;;16.27;9.82;;;15.20;99.90;;;;;;5116249;27;20058;-80
2023/05/15 05:06:32;;;;;;;10.07;5.32;;;15.30;99.90;;;;;;5135913;27;20019;-80
2023/05/15 05:08:58;;;;;;;7.47;3.47;;;15.40;99.90;;;;;;5117195;27;20342;-80
2023/05/15 05:11:24;;;;;;;2.63;2.20;;;15.50;99.90;;;;;;5117331;27;20042;-80
2023/05/15 05:13:50;;;;;;;2.83;1.90;;;15.60;99.90;;;;;;5117366;27;20019;-80
2023/05/15 05:16:16;;;;;;;4.20;2.17;;;15.70;99.90;;;;;;5135299;27;20019;-80
2023/05/15 05:18:41;;;;;;;2.90;2.10;;;15.60;99.90;;;;;;5117105;27;20058;-79
2023/05/15 05:21:07;;;;;;;3.60;2.80;;;15.70;99.90;;;;;;5135324;27;20020;-80
2023/05/15 05:23:33;;;;;;;5.03;3.17;;;15.60;99.90;;;;;;5116676;27;20083;-80
2023/05/15 05:25:59;;;;;;;12.98;6.13;;;15.60;99.90;;;;;;5135397;27;20146;-81
2023/05/15 05:28:25;;;;;;;11.25;4.72;;;15.70;99.90;;;;;;5135148;27;20026;-80
2023/05/15 05:30:51;;;;;;;19.80;8.93;;;15.60;99.90;;;;;;5135441;27;20023;-79
2023/05/15 05:33:17;;;;;;;17.83;9.25;;;15.70;99.90;;;;;;5135404;27;20030;-79
2023/05/15 05:35:43;;;;;;;3.50;2.88;;;15.60;99.90;;;;;;5134852;27;20037;-79
2023/05/15 05:38:08;;;;;;;3.45;2.40;;;15.60;99.90;;;;;;5134999;27;20098;-80
2023/05/15 05:40:34;;;;;;;2.28;2.08;;;15.60;99.90;;;;;;5135345;27;20338;-80
2023/05/15 05:43:01;;;;;;;4.60;3.03;;;15.60;99.90;;;;;;5116467;27;20023;-81
2023/05/15 05:45:27;;;;;;;5.57;2.60;;;15.60;99.90;;;;;;5116988;27;20072;-80
2023/05/15 05:47:56;;;;;;;19.00;8.57;;;15.60;99.90;;;;;;5098385;28;20469;-80
2023/05/15 05:50:23;;;;;;;5.53;2.72;;;15.70;99.90;;;;;;5130069;27;20028;-81
2023/05/15 05:52:48;;;;;;;2.70;2.05;;;15.70;99.90;;;;;;5116773;27;20025;-80
2023/05/15 05:55:14;;;;;;;3.92;2.72;;;15.80;99.90;;;;;;5116613;27;20023;-81
2023/05/15 05:57:40;;;;;;;4.30;3.00;;;15.80;99.90;;;;;;5132883;27;20071;-81
2023/05/15 06:00:10;;;;;;;27.35;10.52;;;15.80;99.90;;;;;;5099520;27;20027;-81
2023/05/15 06:02:37;;;;;;;21.73;9.50;;;15.80;99.90;;;;;;5134531;27;20029;-78
2023/05/15 06:05:03;;;;;;;13.43;7.10;;;15.80;99.90;;;;;;5116323;28;20026;-78
2023/05/15 06:07:29;;;;;;;12.32;7.28;;;15.90;99.90;;;;;;5134952;27;20026;-79
2023/05/15 06:09:55;;;;;;;10.73;6.47;;;15.80;99.90;;;;;;5134314;27;20023;-78
2023/05/15 06:12:21;;;;;;;5.55;3.92;;;15.80;99.90;;;;;;5134541;27;20063;-79
2023/05/15 06:14:47;;;;;;;5.63;3.83;;;15.80;99.90;;;;;;5116399;27;20110;-79
2023/05/15 06:17:12;;;;;;;4.60;3.42;;;15.80;99.90;;;;;;5134856;28;20027;-78
2023/05/15 06:19:38;;;;;;;3.90;2.67;;;15.80;99.90;;;;;;5134456;28;20098;-79
2023/05/15 06:22:04;;;;;;;2.72;2.53;;;15.80;99.90;;;;;;5134654;28;20031;-78
2023/05/15 06:24:30;;;;;;;3.20;2.63;;;15.90;99.90;;;;;;5116093;28;20429;-78
2023/05/15 06:26:56;;;;;;;6.30;3.50;;;15.90;99.90;;;;;;5134650;28;20047;-78
2023/05/15 06:29:22;;;;;;;3.92;3.38;;;16.00;99.90;;;;;;5133989;28;20031;-78
2023/05/15 06:31:47;;;;;;;4.75;4.07;;;15.90;99.90;;;;;;5115831;28;20027;-78
2023/05/15 06:34:13;;;;;;;4.07;3.53;;;15.90;99.90;;;;;;5134677;28;20079;-78
2023/05/15 06:36:39;;;;;;;3.40;3.10;;;15.90;99.90;;;;;;5134339;28;20019;-79
2023/05/15 06:39:05;;;;;;;15.32;8.52;;;16.00;99.90;;;;;;5115847;28;20019;-78
2023/05/15 06:41:31;;;;;;;7.35;4.53;;;15.90;99.90;;;;;;5116119;28;20024;-77
2023/05/15 06:43:58;;;;;;;21.58;12.95;;;15.80;99.90;;;;;;5134560;28;20023;-78
2023/05/15 06:46:24;;;;;;;9.90;6.55;;;15.90;99.90;;;;;;5134234;28;20139;-78
2023/05/15 06:48:50;;;;;;;8.95;6.47;;;15.90;99.90;;;;;;5116304;28;20369;-78
2023/05/15 06:51:16;;;;;;;12.98;8.85;;;15.80;99.90;;;;;;5134474;28;20171;-78
2023/05/15 06:53:41;;;;;;;9.05;5.75;;;15.80;99.90;;;;;;5134212;28;20023;-80
2023/05/15 06:56:07;;;;;;;4.20;3.55;;;15.90;99.90;;;;;;5134493;28;20027;-80
2023/05/15 06:58:33;;;;;;;3.72;3.00;;;15.90;99.90;;;;;;5134414;28;20033;-80
2023/05/15 07:01:02;;;;;;;6.53;2.70;;;16.00;99.90;;;;;;5115609;28;20407;-81
2023/05/15 07:03:31;;;;;;;2.08;1.88;;;16.20;99.90;;;;;;5133969;28;20024;-81
2023/05/15 07:05:57;;;;;;;2.10;1.90;;;16.20;99.90;;;;;;5134225;28;20469;-78
2023/05/15 07:08:23;;;;;;;1.80;1.70;;;16.30;99.90;;;;;;5121844;28;20030;-80
2023/05/15 07:10:48;;;;;;;1.90;1.77;;;16.30;99.90;;;;;;5121801;28;20023;-80
2023/05/15 07:13:18;;;;;;;3.95;2.63;;;16.40;99.90;;;;;;5114056;28;20027;-80
2023/05/15 07:15:44;;;;;;;5.90;4.97;;;16.50;99.90;;;;;;5134248;28;20076;-80
2023/05/15 07:18:10;;;;;;;6.88;5.95;;;16.50;99.90;;;;;;5134291;28;20358;-80
2023/05/15 07:20:36;;;;;;;5.55;4.68;;;16.60;99.90;;;;;;5133657;27;20020;-80
2023/05/15 07:23:02;;;;;;;4.82;3.97;;;16.60;99.90;;;;;;5135790;27;20435;-80
2023/05/15 07:25:28;;;;;;;7.38;4.70;;;16.70;99.90;;;;;;5136760;27;20023;-80
2023/05/15 07:27:54;;;;;;;7.43;4.53;;;16.70;99.90;;;;;;5117557;27;20030;-80
2023/05/15 07:30:20;;;;;;;5.38;4.03;;;16.70;99.90;;;;;;5117538;27;20364;-80
2023/05/15 07:32:46;;;;;;;8.88;4.25;;;16.90;99.90;;;;;;5137596;27;20034;-80
2023/05/15 07:35:12;;;;;;;13.40;7.10;;;16.90;99.90;;;;;;5137200;27;20049;-80
2023/05/15 07:37:38;;;;;;;4.60;3.42;;;17.00;99.90;;;;;;5119241;27;20042;-80
2023/05/15 07:40:05;;;;;;;4.82;3.50;;;17.10;99.90;;;;;;5119216;27;20027;-80
2023/05/15 07:42:30;;;;;;;5.28;3.72;;;17.20;99.90;;;;;;5118733;27;20152;-80
2023/05/15 07:44:56;;;;;;;3.33;2.88;;;17.30;99.90;;;;;;5137801;27;20110;-80
2023/05/15 07:47:22;;;;;;;4.53;3.47;;;17.20;99.90;;;;;;5119074;27;20030;-81
2023/05/15 07:49:48;;;;;;;3.72;2.80;;;17.30;99.90;;;;;;5118694;27;20507;-81
2023/05/15 07:52:13;;;;;;;3.58;2.78;;;17.30;99.90;;;;;;5137719;27;20031;-81
2023/05/15 07:54:40;;;;;;;9.43;4.57;;;17.20;99.90;;;;;;5118961;27;20342;-80
2023/05/15 07:57:07;;;;;;;26.38;12.27;;;17.20;99.90;;;;;;5118878;27;20102;-81
2023/05/15 07:59:34;;;;;;;6.07;3.95;;;17.20;99.90;;;;;;5118870;27;20062;-80
2023/05/15 08:02:00;;;;;;;3.70;2.95;;;17.20;99.90;;;;;;5137229;27;20121;-81
2023/05/15 08:04:26;;;;;;;4.68;3.33;;;17.10;99.90;;;;;;5136883;27;20110;-81
2023/05/15 08:06:52;;;;;;;6.10;3.83;;;17.20;99.90;;;;;;5137140;27;20030;-80
2023/05/15 08:09:18;;;;;;;5.38;3.70;;;17.20;99.90;;;;;;5136749;27;20102;-81
2023/05/15 08:11:43;;;;;;;6.63;5.85;;;17.20;99.90;;;;;;5137271;27;20027;-81
2023/05/15 08:14:09;;;;;;;6.53;5.60;;;17.10;99.90;;;;;;5136784;27;20018;-81
2023/05/15 08:16:35;;;;;;;14.85;7.03;;;17.10;99.90;;;;;;5116400;28;20080;-80
2023/05/15 08:19:03;;;;;;;13.02;8.00;;;17.10;99.90;;;;;;5115344;27;20036;-81
2023/05/15 08:21:30;;;;;;;28.67;13.80;;;17.00;99.90;;;;;;5136857;27;20045;-81
2023/05/15 08:23:56;;;;;;;9.05;5.13;;;17.00;99.90;;;;;;5117966;27;20062;-81
2023/05/15 08:26:22;;;;;;;11.25;5.70;;;17.00;99.90;;;;;;5118446;27;20031;-80
2023/05/15 08:28:48;;;;;;;18.05;10.90;;;16.90;99.90;;;;;;5136722;27;20136;-81
2023/05/15 08:31:14;;;;;;;18.95;9.70;;;16.80;99.90;;;;;;5136384;27;20134;-81
2023/05/15 08:33:40;;;;;;;15.57;8.18;;;16.80;99.90;;;;;;5117881;27;20484;-81
2023/05/15 08:36:07;;;;;;;8.55;5.82;;;16.90;99.90;;;;;;5118108;27;20057;-81
2023/05/15 08:38:32;;;;;;;12.48;5.30;;;16.80;99.90;;;;;;5136228;27;20061;-81
2023/05/15 08:41:06;;;;;;;7.60;4.50;;;16.80;99.90;;;;;;5136490;27;20110;-81
2023/05/15 08:43:35;;;;;;;10.73;4.30;;;16.80;99.90;;;;;;5136283;27;20031;-81
2023/05/15 08:46:01;;;;;;;19.85;10.95;;;16.90;99.90;;;;;;5136155;27;20046;-81
2023/05/15 08:48:28;;;;;;;22.30;11.80;;;16.90;99.90;;;;;;5136345;27;20361;-81
2023/05/15 08:51:00;;;;;;;11.45;6.82;;;16.90;99.90;;;;;;5117837;27;20023;-81
2023/05/15 08:53:27;;;;;;;7.90;6.35;;;16.80;99.90;;;;;;5135701;27;20019;-81
2023/05/15 08:55:53;;;;;;;7.90;5.82;;;16.90;99.90;;;;;;5135467;27;20538;-81
2023/05/15 08:58:24;;;;;;;9.77;7.07;;;16.90;99.90;;;;;;5124353;27;20024;-83
2023/05/15 09:00:51;;;;;;;;;;;16.90;99.90;;;;;;5117586;27;20517;-79
2023/05/15 09:03:18;;;;;;;13.93;7.15;;;16.90;99.90;;;;;;5135805;27;20006;-79
2023/05/15 09:05:46;;;;;;;12.85;7.30;;;16.90;99.90;;;;;;5117230;27;20050;-79
2023/05/15 09:08:14;;;;;;;11.50;8.23;;;16.90;99.90;;;;;;5135903;27;20029;-79
2023/05/15 09:10:41;;;;;;;8.50;7.22;;;17.00;99.90;;;;;;5135883;27;20015;-79
2023/05/15 09:13:08;;;;;;;9.15;6.97;;;17.10;99.90;;;;;;5135231;27;20045;-79
2023/05/15 09:15:36;;;;;;;11.93;8.45;;;17.10;99.90;;;;;;5135801;27;20027;-79
2023/05/15 09:18:01;;;;;;;22.10;10.00;;;17.20;99.90;;;;;;5117258;27;20026;-81
2023/05/15 09:20:35;;;;;;;13.55;8.13;;;17.20;99.90;;;;;;5135210;27;20019;-80
2023/05/15 09:23:20;;;;;;;8.90;6.30;;;17.20;99.90;;;;;;5135604;27;20485;-80
2023/05/15 09:25:51;;;;;;;8.05;6.03;;;17.20;99.90;;;;;;5135625;27;20454;-80
2023/05/15 09:28:31;;;;;;;8.25;5.47;;;17.20;99.90;;;;;;5135707;27;20046;-80
2023/05/15 09:31:01;;;;;;;7.10;5.25;;;17.20;99.90;;;;;;5135833;27;20530;-79
2023/05/15 09:33:36;;;;;;;7.90;5.50;;;17.40;99.90;;;;;;5134897;27;20504;-80
2023/05/15 09:36:04;;;;;;;6.43;4.20;;;17.40;99.90;;;;;;5117212;27;20350;-80
2023/05/15 09:38:34;;;;;;;15.07;8.13;;;17.40;99.90;;;;;;5116864;27;20030;-80
2023/05/15 09:41:05;;;;;;;7.65;5.80;;;17.40;99.90;;;;;;5135146;27;20019;-79
2023/05/15 09:43:36;;;;;;;7.07;5.18;;;17.50;99.90;;;;;;5114244;28;20446;-80
2023/05/15 09:46:02;;;;;;;9.87;5.40;;;;;;;;;;5133615;27;20071;-80
2023/05/15 09:48:29;;;;;;;11.05;6.40;;;17.50;99.90;;;;;;5116523;27;20255;-80
2023/05/15 09:50:55;;;;;;;10.93;6.38;;;17.70;99.90;;;;;;5116895;27;20520;-80
2023/05/15 09:53:21;;;;;;;10.50;6.95;;;17.90;99.90;;;;;;5135187;27;20050;-81
2023/05/15 09:55:48;;;;;;;5.53;3.90;;;17.90;99.90;;;;;;5116444;27;20461;-81
2023/05/15 09:58:17;;;;;;;8.52;4.13;;;17.80;99.90;;;;;;5135130;27;20031;-81
2023/05/15 10:00:44;;;;;;;4.68;3.90;;;17.90;99.90;;;;;;5135161;27;20453;-80
2023/05/15 10:03:11;;;;;;;8.40;5.20;;;18.00;99.90;;;;;;5116200;27;20066;-80
2023/05/15 10:05:38;;;;;;;6.60;4.80;;;18.00;99.90;;;;;;5116582;27;20043;-80
2023/05/15 10:08:05;;;;;;;10.68;6.00;;;18.00;99.90;;;;;;5118984;27;20038;-80
2023/05/15 10:10:31;;;;;;;12.75;6.25;;;18.00;99.90;;;;;;5108359;27;20026;-80
2023/05/15 10:13:02;;;;;;;16.52;7.32;;;18.10;99.90;;;;;;5131558;27;20064;-80
2023/05/15 10:15:28;;;;;;;7.38;5.65;;;18.00;99.90;;;;;;5133909;27;20091;-80
2023/05/15 10:17:54;;;;;;;8.98;5.05;;;18.10;99.90;;;;;;5134641;28;20023;-80
2023/05/15 10:20:23;;;;;;;5.95;5.35;;;18.10;99.90;;;;;;5133680;28;20041;-80
2023/05/15 10:22:51;;;;;;;7.05;4.85;;;18.00;99.90;;;;;;5115266;28;20027;-80
2023/05/15 10:25:31;;;;;;;6.85;5.28;;;18.10;99.90;;;;;;5115526;28;20043;-80
2023/05/15 10:27:57;;;;;;;11.15;5.30;;;18.10;99.90;;;;;;5115461;28;20032;-79
2023/05/15 10:30:24;;;;;;;8.73;5.68;;;18.10;99.90;;;;;;5115310;28;20076;-80
2023/05/15 10:32:51;;;;;;;6.90;5.18;;;18.10;99.90;;;;;;5134070;28;20019;-79
2023/05/15 10:35:17;;;;;;;8.00;6.07;;;18.10;99.90;;;;;;5115434;28;20028;-80
2023/05/15 10:37:47;;;;;;;43.03;17.63;;;18.20;99.90;;;;;;5115339;28;20027;-81
2023/05/15 10:40:15;;;;;;;9.43;6.85;;;18.30;99.90;;;;;;5115086;28;20032;-81
2023/05/15 10:42:43;;;;;;;27.65;12.43;;;18.30;99.90;;;;;;5133841;28;20019;-80
2023/05/15 10:45:10;;;;;;;17.10;8.65;;;18.30;99.90;;;;;;5115090;28;20023;-80
2023/05/15 10:47:38;;;;;;;8.70;7.15;;;18.50;99.90;;;;;;5133926;28;20016;-80
2023/05/15 10:50:05;;;;;;;9.68;7.22;;;18.40;99.90;;;;;;5133907;28;20406;-80
2023/05/15 10:52:32;;;;;;;9.98;8.13;;;18.50;99.90;;;;;;5133474;28;20019;-80
2023/05/15 10:54:58;;;;;;;21.05;10.20;;;18.60;99.90;;;;;;5115745;27;20023;-81
2023/05/15 10:57:27;;;;;;;12.02;8.35;;;18.60;99.90;;;;;;5137786;27;20158;-81
2023/05/15 10:59:53;;;;;;;12.13;8.30;;;;;;;;;;5138059;27;20023;-80
2023/05/15 11:02:28;;;;;;;11.95;8.80;;;18.80;99.90;;;;;;5119873;27;20027;-80
2023/05/15 11:04:59;;;;;;;13.63;8.18;;;18.80;99.90;;;;;;5119762;27;20039;-80
2023/05/15 11:07:25;;;;;;;18.70;10.07;;;18.70;99.90;;;;;;5138028;27;20023;-80
2023/05/15 11:09:54;;;;;;;10.82;9.10;;;18.60;99.90;;;;;;5138270;27;20029;-80
2023/05/15 11:12:21;;;;;;;11.05;8.75;;;18.50;99.90;;;;;;5138160;27;20525;-80
2023/05/15 11:14:56;;;;;;;10.50;8.43;;;18.60;99.90;;;;;;5137954;27;20022;-80
2023/05/15 11:17:23;;;;;;;13.40;8.90;;;18.70;99.90;;;;;;5138427;27;20023;-80
2023/05/15 11:19:48;;;;;;;12.18;9.27;;;18.70;99.90;;;;;;5113083;28;20365;-80
2023/05/15 11:22:21;;;;;;;12.60;9.65;;;18.70;99.90;;;;;;5120486;27;20042;-81
2023/05/15 11:24:50;;;;;;;15.48;9.20;;;18.70;99.90;;;;;;5137736;27;20057;-81
2023/05/15 11:27:25;;;;;;;14.30;11.25;;;18.60;99.90;;;;;;5137701;27;20023;-82
2023/05/15 11:30:09;;;;;;;16.08;11.10;;;18.70;99.90;;;;;;5137974;27;20022;-81
2023/05/15 11:33:03;;;;;;;17.15;10.00;;;18.60;99.90;;;;;;5137759;27;20085;-81
2023/05/15 11:35:33;;;;;;;16.85;10.05;;;18.50;99.90;;;;;;5119452;27;20015;-82
2023/05/15 11:38:10;;;;;;;12.63;10.55;;;18.80;99.90;;;;;;5137459;27;20027;-81
2023/05/15 11:40:53;;;;;;;11.70;8.10;;;19.10;99.90;;;;;;5118960;27;20019;-81
2023/05/15 11:43:20;;;;;;;13.73;8.80;;;19.10;99.90;;;;;;5137844;27;20027;-82
2023/05/15 11:45:51;;;;;;;10.93;8.57;;;19.20;99.90;;;;;;5119183;27;20027;-81
2023/05/15 11:48:18;;;;;;;12.63;9.52;;;19.30;99.90;;;;;;5137608;27;20023;-83
2023/05/15 11:50:44;;;;;;;12.27;8.80;;;19.30;99.90;;;;;;5137848;27;20119;-82
2023/05/15 11:53:11;;;;;;;14.70;8.52;;;;;;;;;;5119153;27;20065;-82
2023/05/15 11:55:39;;;;;;;11.48;8.85;;;;;;;;;;5136396;27;20011;-81
2023/05/15 11:58:09;;;;;;;13.32;9.40;;;19.50;99.90;;;;;;5118440;27;20026;-82
2023/05/15 12:00:35;;;;;;;14.68;9.27;;;19.70;99.90;;;;;;5118284;27;20463;-83
2023/05/15 12:03:02;;;;;;;15.40;9.85;;;19.70;99.90;;;;;;5118498;27;20485;-82
2023/05/15 12:05:29;;;;;;;14.30;9.43;;;19.60;99.90;;;;;;5131768;27;20031;-83
2023/05/15 12:07:56;;;;;;;15.98;10.73;;;19.50;99.90;;;;;;5126414;27;20065;-83
2023/05/15 12:10:22;;;;;;;12.82;10.30;;;19.40;99.90;;;;;;5118686;27;20056;-83
2023/05/15 12:12:48;;;;;;;15.52;10.48;;;19.30;99.90;;;;;;5118657;27;20107;-83
2023/05/15 12:15:16;;;;;;;14.55;11.43;;;19.20;99.90;;;;;;5136320;27;20030;-83
2023/05/15 12:17:44;;;;;;;15.30;11.70;;;19.20;99.90;;;;;;5118633;27;20019;-82
2023/05/15 12:20:16;;;;;;;17.35;10.75;;;19.20;99.90;;;;;;5118501;27;20023;-82
2023/05/15 12:22:41;;;;;;;;;;;19.10;99.90;;;;;;5137142;27;20342;-80
2023/05/15 12:25:10;;;;;;;15.23;11.20;;;19.10;99.90;;;;;;5118568;27;20006;-80
2023/05/15 12:27:37;;;;;;;17.85;12.27;;;19.00;99.90;;;;;;5118311;27;20080;-80
2023/05/15 12:30:04;;;;;;;18.27;12.32;;;19.00;99.90;;;;;;5136413;27;20027;-80
2023/05/15 12:32:33;;;;;;;16.23;10.88;;;19.10;99.90;;;;;;5136702;27;20076;-80
2023/05/15 12:35:00;;;;;;;16.88;11.02;;;19.30;99.90;;;;;;5118268;27;20023;-80
2023/05/15 12:37:29;;;;;;;19.25;11.38;;;19.50;99.90;;;;;;5136337;27;20020;-80
2023/05/15 12:40:00;;;;;;;14.15;11.05;;;19.50;99.90;;;;;;5118066;27;20519;-80
2023/05/15 12:42:26;;;;;;;14.30;11.20;;;19.60;99.90;;;;;;5136291;27;20023;-81
2023/05/15 12:44:53;;;;;;;19.23;10.73;;;19.50;99.90;;;;;;5136104;27;20046;-82